Time;durP1;ratioP1;P1;durP2;ratioP2;P2;SDS_P1;SDS_P2;PMS_P1;PMS_P2;Temp;Humidity;BMP_temperature;BMP_pressure;BME280_temperature;BME280_humidity;BME280_pressure;Samples;Min_cycle;Max_cycle;Signal;HPM_P1;HPM_P2
2022/09/17 00:00:39;;;;;;;16.73;3.58;;;11.10;99.90;;;;;;5049009;28;20060;-75
2022/09/17 00:03:06;;;;;;;15.57;3.10;;;11.10;99.90;;;;;;5048676;28;20191;-73
2022/09/17 00:05:32;;;;;;;24.05;2.72;;;11.00;99.90;;;;;;5039153;28;20045;-73
2022/09/17 00:07:58;;;;;;;19.17;3.30;;;11.00;99.90;;;;;;5017342;28;20052;-74
2022/09/17 00:10:23;;;;;;;16.30;2.83;;;11.20;99.90;;;;;;5031034;28;20048;-75
2022/09/17 00:12:50;;;;;;;19.60;3.28;;;11.10;99.90;;;;;;5052665;28;20132;-74
2022/09/17 00:15:16;;;;;;;17.00;2.78;;;11.00;99.90;;;;;;5046233;28;20045;-74
2022/09/17 00:17:42;;;;;;;17.20;2.95;;;11.00;99.90;;;;;;5023860;28;20292;-73
2022/09/17 00:20:12;;;;;;;12.95;2.40;;;11.00;99.90;;;;;;5051880;28;20044;-73
2022/09/17 00:22:38;;;;;;;13.55;2.47;;;11.00;99.90;;;;;;5050910;28;20053;-75
2022/09/17 00:25:05;;;;;;;13.02;2.83;;;11.00;99.90;;;;;;5051923;28;20045;-74
2022/09/17 00:27:31;;;;;;;13.75;2.55;;;10.90;99.90;;;;;;5036806;28;20128;-74
2022/09/17 00:29:57;;;;;;;12.55;2.60;;;10.80;99.90;;;;;;5053149;28;20147;-74
2022/09/17 00:32:23;;;;;;;17.35;2.47;;;10.80;99.90;;;;;;5052334;28;20084;-74
2022/09/17 00:34:51;;;;;;;17.48;2.67;;;10.70;99.90;;;;;;5037255;28;20053;-74
2022/09/17 00:37:18;;;;;;;15.00;2.92;;;10.70;99.90;;;;;;5000159;28;20129;-75
2022/09/17 00:39:44;;;;;;;17.92;3.30;;;10.60;99.90;;;;;;5031621;28;20111;-75
2022/09/17 00:42:13;;;;;;;17.98;3.30;;;10.60;99.90;;;;;;5039763;28;20080;-74
2022/09/17 00:44:43;;;;;;;18.08;3.10;;;10.60;99.90;;;;;;5050923;28;20056;-74
2022/09/17 00:47:29;;;;;;;22.75;3.35;;;10.50;99.90;;;;;;5035682;28;20539;-74
2022/09/17 00:50:01;;;;;;;25.38;3.60;;;10.50;99.90;;;;;;5047654;28;20444;-74
2022/09/17 00:52:39;;;;;;;18.73;3.28;;;10.60;99.90;;;;;;5043967;28;20098;-75
2022/09/17 00:55:22;;;;;;;18.58;3.67;;;10.60;99.90;;;;;;5052147;28;20057;-75
2022/09/17 00:57:50;;;;;;;14.85;3.42;;;10.60;99.90;;;;;;5019439;28;20045;-74
2022/09/17 01:00:18;;;;;;;15.88;2.95;;;10.70;99.90;;;;;;5031242;28;20120;-74
2022/09/17 01:02:44;;;;;;;18.75;3.35;;;11.00;99.90;;;;;;5034661;28;20497;-75
2022/09/17 01:05:11;;;;;;;14.25;2.40;;;11.00;99.90;;;;;;5014651;28;20125;-75
2022/09/17 01:07:47;;;;;;;11.75;2.75;;;11.10;99.90;;;;;;5033053;28;20488;-74
2022/09/17 01:10:21;;;;;;;18.85;2.90;;;11.20;99.90;;;;;;5051528;28;20404;-75
2022/09/17 01:13:19;;;;;;;14.23;2.25;;;11.20;99.90;;;;;;5051579;28;20048;-73
2022/09/17 01:15:57;;;;;;;13.82;2.30;;;11.30;99.90;;;;;;5032770;28;20041;-74
2022/09/17 01:18:45;;;;;;;18.15;2.40;;;11.30;99.90;;;;;;5035895;28;20048;-74
2022/09/17 01:21:13;;;;;;;20.38;3.13;;;11.40;99.90;;;;;;5052142;28;20534;-75
2022/09/17 01:24:29;;;;;;;12.63;2.60;;;11.40;99.90;;;;;;5035423;28;20050;-74
2022/09/17 01:27:13;;;;;;;11.85;2.40;;;11.40;99.90;;;;;;4975451;28;20177;-74
2022/09/17 01:29:54;;;;;;;13.98;2.25;;;11.50;99.90;;;;;;4984702;28;20520;-74
2022/09/17 01:32:41;;;;;;;13.60;2.63;;;11.40;99.90;;;;;;5041727;28;20053;-74
2022/09/17 01:35:12;;;;;;;12.50;2.45;;;11.30;99.90;;;;;;5033219;28;20053;-75
2022/09/17 01:38:00;;;;;;;15.02;2.50;;;11.40;99.90;;;;;;5015041;28;20512;-74
2022/09/17 01:40:35;;;;;;;15.98;2.53;;;11.40;99.90;;;;;;5038467;28;20127;-75
2022/09/17 01:43:27;;;;;;;15.13;2.88;;;11.40;99.90;;;;;;5037225;28;20064;-74
2022/09/17 01:46:02;;;;;;;23.00;3.17;;;11.30;99.90;;;;;;5041716;28;20044;-74
2022/09/17 01:48:38;;;;;;;19.08;2.95;;;11.30;99.90;;;;;;5035348;28;20492;-74
2022/09/17 01:51:15;;;;;;;13.95;3.00;;;11.30;99.90;;;;;;5051586;28;20049;-73
2022/09/17 01:53:50;;;;;;;20.00;3.30;;;11.20;99.90;;;;;;5042532;28;20037;-75
2022/09/17 01:56:23;;;;;;;18.30;2.47;;;11.30;99.90;;;;;;5031070;28;20045;-75
2022/09/17 01:59:17;;;;;;;17.67;3.00;;;11.30;99.90;;;;;;5046166;28;20057;-74
2022/09/17 02:01:46;;;;;;;8.07;2.05;;;11.20;99.90;;;;;;5050274;28;20053;-74
2022/09/17 02:04:31;;;;;;;13.93;2.30;;;11.20;99.90;;;;;;5050309;28;20049;-75
2022/09/17 02:07:04;;;;;;;14.32;2.42;;;11.20;99.90;;;;;;5036224;28;20412;-75
2022/09/17 02:09:45;;;;;;;16.58;3.15;;;11.20;99.90;;;;;;5032407;28;20041;-74
2022/09/17 02:12:23;;;;;;;14.02;2.85;;;11.20;99.90;;;;;;5032768;28;20477;-75
2022/09/17 02:14:52;;;;;;;13.63;2.60;;;11.10;99.90;;;;;;5051188;28;20056;-74
2022/09/17 02:17:26;;;;;;;20.40;3.15;;;11.20;99.90;;;;;;5034923;28;20041;-73
2022/09/17 02:19:53;;;;;;;13.82;2.25;;;11.20;99.90;;;;;;5049863;28;20056;-73
2022/09/17 02:22:29;;;;;;;9.00;1.60;;;10.70;99.90;;;;;;5049979;28;20099;-72
2022/09/17 02:25:21;;;;;;;13.10;2.33;;;10.60;99.90;;;;;;5050790;28;20136;-72
2022/09/17 02:28:09;;;;;;;18.95;2.75;;;10.50;99.90;;;;;;5022443;28;20053;-72
2022/09/17 02:30:35;;;;;;;16.20;2.60;;;10.30;99.90;;;;;;5030947;28;20442;-73
2022/09/17 02:33:03;;;;;;;22.15;3.00;;;10.30;99.90;;;;;;5035246;28;20510;-73
2022/09/17 02:35:30;;;;;;;21.75;3.35;;;10.20;99.90;;;;;;5049324;28;20048;-72
2022/09/17 02:37:56;;;;;;;22.00;3.35;;;10.20;99.90;;;;;;5033846;28;20064;-73
2022/09/17 02:40:26;;;;;;;16.88;2.72;;;10.20;99.90;;;;;;5032961;28;20049;-73
2022/09/17 02:43:04;;;;;;;23.25;3.17;;;10.00;99.90;;;;;;5045585;28;20051;-73
2022/09/17 02:45:53;;;;;;;19.67;3.47;;;10.10;99.90;;;;;;5041498;28;20049;-74
2022/09/17 02:48:41;;;;;;;18.85;3.00;;;10.10;99.90;;;;;;5033001;28;20115;-73
2022/09/17 02:51:36;;;;;;;17.10;2.97;;;10.10;99.90;;;;;;5048781;28;20064;-75
2022/09/17 02:54:14;;;;;;;17.80;3.05;;;10.10;99.90;;;;;;5045260;28;20381;-74
2022/09/17 02:57:01;;;;;;;23.08;3.00;;;10.20;99.90;;;;;;5018887;28;20090;-74
2022/09/17 02:59:41;;;;;;;19.38;3.65;;;10.20;99.90;;;;;;5046322;28;20095;-74
2022/09/17 03:02:22;;;;;;;17.48;2.95;;;10.30;99.90;;;;;;5039934;28;20563;-74
2022/09/17 03:04:48;;;;;;;18.98;2.70;;;10.30;99.90;;;;;;5037792;28;20049;-74
2022/09/17 03:07:16;;;;;;;19.52;3.03;;;10.40;99.90;;;;;;5032530;28;20488;-73
2022/09/17 03:09:42;;;;;;;17.67;3.05;;;10.50;99.90;;;;;;5048972;28;20131;-74
2022/09/17 03:12:09;;;;;;;10.48;2.30;;;10.50;99.90;;;;;;5041086;28;20471;-72
2022/09/17 03:14:35;;;;;;;12.40;2.25;;;10.40;99.90;;;;;;5030413;28;20505;-73
2022/09/17 03:17:01;;;;;;;18.85;2.30;;;10.50;99.90;;;;;;5033654;28;20053;-73
2022/09/17 03:19:26;;;;;;;19.42;3.15;;;10.40;99.90;;;;;;5049195;28;20403;-75
2022/09/17 03:21:52;;;;;;;18.63;3.17;;;10.60;99.90;;;;;;5050067;28;20063;-73
2022/09/17 03:24:18;;;;;;;17.48;2.90;;;10.50;99.90;;;;;;5048060;28;20053;-73
2022/09/17 03:26:46;;;;;;;14.38;2.38;;;10.40;99.90;;;;;;5032651;28;20381;-73
2022/09/17 03:29:12;;;;;;;15.13;2.40;;;10.40;99.90;;;;;;5038408;28;20053;-74
2022/09/17 03:31:38;;;;;;;13.52;2.60;;;10.50;99.90;;;;;;5050136;28;20045;-74
2022/09/17 03:34:03;;;;;;;12.18;2.20;;;10.40;99.90;;;;;;5034313;28;20416;-74
2022/09/17 03:36:29;;;;;;;11.43;2.50;;;10.40;99.90;;;;;;5032241;28;20619;-72
2022/09/17 03:38:56;;;;;;;14.52;2.30;;;10.40;99.90;;;;;;5040993;28;20064;-73
2022/09/17 03:41:22;;;;;;;20.02;3.20;;;10.40;99.90;;;;;;5035645;28;20053;-74
2022/09/17 03:43:48;;;;;;;13.98;2.67;;;10.50;99.90;;;;;;5031842;28;20052;-73
2022/09/17 03:46:13;;;;;;;22.52;3.83;;;10.50;99.90;;;;;;5038347;28;20399;-74
2022/09/17 03:48:39;;;;;;;15.27;2.70;;;10.60;99.90;;;;;;5045510;28;20558;-74
2022/09/17 03:51:05;;;;;;;18.88;3.83;;;10.50;99.90;;;;;;5052215;28;20125;-74
2022/09/17 03:53:32;;;;;;;20.65;3.00;;;10.60;99.90;;;;;;5033641;28;20058;-74
2022/09/17 03:55:59;;;;;;;20.77;3.03;;;10.60;99.90;;;;;;5032830;28;20172;-74
2022/09/17 03:58:26;;;;;;;14.98;2.85;;;10.70;99.90;;;;;;5037717;28;20174;-74
2022/09/17 04:00:52;;;;;;;14.45;3.25;;;10.60;99.90;;;;;;5053676;28;20403;-74
2022/09/17 04:03:18;;;;;;;15.45;2.78;;;10.70;99.90;;;;;;5052778;28;20056;-74
2022/09/17 04:05:44;;;;;;;13.90;2.83;;;10.70;99.90;;;;;;5053610;28;20068;-74
2022/09/17 04:08:09;;;;;;;14.93;2.65;;;10.70;99.90;;;;;;5036079;28;20049;-75
2022/09/17 04:10:35;;;;;;;19.30;2.60;;;10.70;99.90;;;;;;5053204;28;20095;-74
2022/09/17 04:13:01;;;;;;;14.30;2.67;;;10.70;99.90;;;;;;5051378;28;20126;-74
2022/09/17 04:15:26;;;;;;;14.07;2.28;;;10.70;99.90;;;;;;5053427;28;20130;-74
2022/09/17 04:17:58;;;;;;;16.45;2.67;;;10.40;99.90;;;;;;5035849;28;20049;-74
2022/09/17 04:20:24;;;;;;;11.23;2.10;;;10.60;99.90;;;;;;5064753;28;20046;-75
2022/09/17 04:22:51;;;;;;;13.68;2.22;;;10.70;99.90;;;;;;5052422;28;20049;-74
2022/09/17 04:25:17;;;;;;;13.55;2.45;;;10.70;99.90;;;;;;5050393;28;20259;-74
2022/09/17 04:27:44;;;;;;;15.88;2.30;;;10.80;99.90;;;;;;5026686;28;20064;-73
2022/09/17 04:30:10;;;;;;;19.02;2.75;;;10.80;99.90;;;;;;5073776;28;20070;-74
2022/09/17 04:32:36;;;;;;;9.98;2.50;;;10.60;99.90;;;;;;5067777;28;20055;-74
2022/09/17 04:35:02;;;;;;;13.27;2.20;;;10.80;99.90;;;;;;5036236;28;20041;-74
2022/09/17 04:37:28;;;;;;;13.10;2.17;;;10.60;99.90;;;;;;5016134;28;20492;-73
2022/09/17 04:39:53;;;;;;;13.70;2.17;;;10.60;99.90;;;;;;5036911;28;20051;-74
2022/09/17 04:42:19;;;;;;;16.33;2.50;;;10.70;99.90;;;;;;5052017;28;20056;-73
2022/09/17 04:44:45;;;;;;;10.45;2.10;;;10.70;99.90;;;;;;5053028;28;20056;-74
2022/09/17 04:47:10;;;;;;;15.23;2.42;;;10.60;99.90;;;;;;5029010;28;20546;-74
2022/09/17 04:49:36;;;;;;;18.70;2.42;;;10.80;99.90;;;;;;5032120;28;20061;-74
2022/09/17 04:52:02;;;;;;;14.65;2.45;;;10.60;99.90;;;;;;5040990;28;20075;-74
2022/09/17 04:54:27;;;;;;;9.20;1.95;;;10.60;99.90;;;;;;5040885;28;20128;-73
2022/09/17 04:56:53;;;;;;;11.35;2.17;;;10.50;99.90;;;;;;5033748;28;20086;-73
2022/09/17 04:59:19;;;;;;;15.00;2.30;;;10.60;99.90;;;;;;5046491;28;20179;-73
2022/09/17 05:01:44;;;;;;;16.73;2.60;;;10.70;99.90;;;;;;5034095;28;20055;-74
2022/09/17 05:04:10;;;;;;;15.50;2.45;;;10.70;99.90;;;;;;5039792;28;20103;-73
2022/09/17 05:06:36;;;;;;;10.73;1.92;;;11.00;99.90;;;;;;5032777;28;20471;-74
2022/09/17 05:09:02;;;;;;;14.35;2.40;;;10.90;99.90;;;;;;5045787;28;20064;-74
2022/09/17 05:11:28;;;;;;;14.05;2.00;;;11.00;99.90;;;;;;5038526;28;20404;-73
2022/09/17 05:13:54;;;;;;;11.68;2.47;;;11.00;99.90;;;;;;5034630;28;20049;-74
2022/09/17 05:16:19;;;;;;;9.68;2.10;;;11.20;99.90;;;;;;5040948;28;20060;-74
2022/09/17 05:18:45;;;;;;;16.17;2.60;;;11.20;99.90;;;;;;5045479;28;20041;-74
2022/09/17 05:21:11;;;;;;;13.07;2.60;;;11.20;99.90;;;;;;5050920;28;20135;-74
2022/09/17 05:23:37;;;;;;;17.05;3.00;;;11.20;99.90;;;;;;5049980;28;20072;-75
2022/09/17 05:26:03;;;;;;;19.73;3.15;;;11.10;99.90;;;;;;5051080;28;20136;-74
2022/09/17 05:28:28;;;;;;;13.88;3.00;;;11.10;99.90;;;;;;5018425;28;20124;-74
2022/09/17 05:30:57;;;;;;;11.85;2.85;;;11.20;99.90;;;;;;5051041;28;20105;-74
2022/09/17 05:33:23;;;;;;;10.00;2.50;;;11.30;99.90;;;;;;5038213;28;20041;-74
2022/09/17 05:35:48;;;;;;;14.63;2.35;;;11.20;99.90;;;;;;5032109;28;20053;-74
2022/09/17 05:38:14;;;;;;;9.80;2.33;;;11.00;99.90;;;;;;5019420;28;20037;-75
2022/09/17 05:40:40;;;;;;;12.95;2.15;;;10.90;99.90;;;;;;5051896;28;20057;-73
2022/09/17 05:43:08;;;;;;;9.50;2.25;;;10.80;99.90;;;;;;5051100;28;20045;-73
2022/09/17 05:45:34;;;;;;;8.15;1.67;;;10.80;99.90;;;;;;5050904;28;20480;-75
2022/09/17 05:48:01;;;;;;;10.20;1.75;;;10.70;99.90;;;;;;5020102;28;20037;-75
2022/09/17 05:50:28;;;;;;;10.60;1.65;;;10.60;99.90;;;;;;5043452;28;20057;-72
2022/09/17 05:52:53;;;;;;;10.38;1.67;;;10.50;99.90;;;;;;5036098;28;20122;-71
2022/09/17 05:55:21;;;;;;;11.32;2.08;;;10.30;99.90;;;;;;5052175;28;20106;-72
2022/09/17 05:57:47;;;;;;;9.32;1.48;;;10.20;99.90;;;;;;5035093;28;20496;-71
2022/09/17 06:00:14;;;;;;;9.23;1.77;;;10.10;99.90;;;;;;5049779;28;20067;-72
2022/09/17 06:02:39;;;;;;;11.80;2.05;;;10.10;99.90;;;;;;5059046;28;20614;-73
2022/09/17 06:05:06;;;;;;;6.90;1.65;;;10.00;99.90;;;;;;5030012;28;20120;-74
2022/09/17 06:07:35;;;;;;;11.38;1.80;;;10.00;99.90;;;;;;5031597;28;20052;-71
2022/09/17 06:10:01;;;;;;;15.25;2.10;;;10.00;99.90;;;;;;5051499;28;20094;-71
2022/09/17 06:12:26;;;;;;;16.55;2.97;;;10.00;99.90;;;;;;5049944;28;20056;-71
2022/09/17 06:14:52;;;;;;;19.27;2.75;;;10.00;99.90;;;;;;5050487;28;20090;-72
2022/09/17 06:17:18;;;;;;;18.00;2.73;;;10.10;99.90;;;;;;5034889;28;20124;-71
2022/09/17 06:19:43;;;;;;;15.27;2.70;;;10.00;99.90;;;;;;5039566;28;20128;-72
2022/09/17 06:22:09;;;;;;;13.48;2.47;;;10.00;99.90;;;;;;5031702;28;20049;-72
2022/09/17 06:24:35;;;;;;;14.70;2.05;;;10.00;99.90;;;;;;5069837;28;20048;-72
2022/09/17 06:27:01;;;;;;;9.53;1.60;;;10.10;99.90;;;;;;5054376;28;20048;-72
2022/09/17 06:29:26;;;;;;;10.53;1.53;;;10.20;99.90;;;;;;5048068;28;20065;-73
2022/09/17 06:31:52;;;;;;;9.70;1.52;;;10.30;99.90;;;;;;5045795;28;20041;-73
2022/09/17 06:34:18;;;;;;;11.05;1.50;;;10.30;99.90;;;;;;5046988;28;20068;-72
2022/09/17 06:36:44;;;;;;;8.57;1.40;;;10.30;99.90;;;;;;5042694;28;20041;-74
2022/09/17 06:39:10;;;;;;;11.52;1.88;;;10.40;99.90;;;;;;5047731;28;20106;-73
2022/09/17 06:41:37;;;;;;;9.10;1.30;;;10.40;99.90;;;;;;5062114;28;20507;-72
2022/09/17 06:44:03;;;;;;;11.35;1.40;;;10.30;99.90;;;;;;5063800;28;20048;-73
2022/09/17 06:46:29;;;;;;;12.70;1.52;;;10.30;99.90;;;;;;5045687;28;20932;-73
2022/09/17 06:48:55;;;;;;;8.98;1.77;;;10.20;99.90;;;;;;5059754;28;20044;-72
2022/09/17 06:51:21;;;;;;;10.60;1.80;;;10.00;99.90;;;;;;5064148;28;20087;-72
2022/09/17 06:53:47;;;;;;;10.48;1.42;;;10.10;99.90;;;;;;5059952;28;20037;-72
2022/09/17 06:56:14;;;;;;;9.25;1.50;;;10.10;99.90;;;;;;5046385;28;20156;-74
2022/09/17 06:58:43;;;;;;;10.18;1.55;;;10.30;99.90;;;;;;5055357;28;20044;-72
2022/09/17 07:01:12;;;;;;;11.38;2.10;;;10.40;99.90;;;;;;5058530;28;20049;-73
2022/09/17 07:03:41;;;;;;;15.10;2.17;;;10.60;99.90;;;;;;5065492;28;20486;-74
2022/09/17 07:06:09;;;;;;;12.98;2.45;;;10.80;99.90;;;;;;5058446;28;20040;-75
2022/09/17 07:08:35;;;;;;;9.98;2.05;;;11.00;99.90;;;;;;5054668;28;20049;-74
2022/09/17 07:11:01;;;;;;;11.00;1.92;;;11.20;99.90;;;;;;5041996;28;20036;-73
2022/09/17 07:13:26;;;;;;;11.38;2.20;;;11.50;99.90;;;;;;5058709;28;20101;-74
2022/09/17 07:15:57;;;;;;;13.82;2.22;;;11.30;99.90;;;;;;5041063;28;20096;-73
2022/09/17 07:18:23;;;;;;;12.60;2.00;;;11.40;99.90;;;;;;5011943;28;20448;-74
2022/09/17 07:20:57;;;;;;;11.73;1.95;;;11.40;99.90;;;;;;5033719;28;20530;-74
2022/09/17 07:23:25;;;;;;;13.65;2.10;;;11.60;99.90;;;;;;5042799;28;20041;-74
2022/09/17 07:26:11;;;;;;;12.52;1.60;;;11.80;99.90;;;;;;5045668;28;20118;-73
2022/09/17 07:28:38;;;;;;;8.85;1.70;;;12.00;99.90;;;;;;5034228;28;20083;-72
2022/09/17 07:31:05;;;;;;;10.18;1.15;;;11.80;99.90;;;;;;5045800;28;20052;-73
2022/09/17 07:33:31;;;;;;;9.00;1.20;;;11.90;99.90;;;;;;5022406;28;20041;-74
2022/09/17 07:36:02;;;;;;;13.73;2.08;;;11.90;99.90;;;;;;5041547;28;20492;-74
2022/09/17 07:38:28;;;;;;;16.23;2.13;;;12.10;99.90;;;;;;5020987;28;20136;-73
2022/09/17 07:41:01;;;;;;;12.02;1.90;;;12.30;99.90;;;;;;5046715;28;20500;-74
2022/09/17 07:43:29;;;;;;;12.63;2.28;;;12.40;99.90;;;;;;5051399;28;20049;-74
2022/09/17 07:46:00;;;;;;;12.15;1.65;;;12.50;99.90;;;;;;5071269;28;20064;-75
2022/09/17 07:48:27;;;;;;;15.17;1.87;;;12.70;99.90;;;;;;5050414;28;20045;-75
2022/09/17 07:50:52;;;;;;;10.02;1.60;;;12.80;99.90;;;;;;5045962;28;20637;-75
2022/09/17 07:53:18;;;;;;;12.23;1.70;;;12.90;99.90;;;;;;5041967;28;20052;-73
2022/09/17 07:55:55;;;;;;;11.38;2.00;;;12.70;99.90;;;;;;5041383;28;20040;-73
2022/09/17 07:58:22;;;;;;;15.68;2.70;;;12.20;99.90;;;;;;5033031;28;20041;-75
2022/09/17 08:00:48;;;;;;;13.02;2.33;;;11.80;99.90;;;;;;5049808;28;20056;-74
2022/09/17 08:03:14;;;;;;;13.35;2.10;;;11.00;99.90;;;;;;5041526;28;20053;-74
2022/09/17 08:05:40;;;;;;;14.88;2.60;;;10.80;99.90;;;;;;5042749;28;20049;-73
2022/09/17 08:08:05;;;;;;;12.82;2.63;;;10.60;99.90;;;;;;5033646;28;20073;-74
2022/09/17 08:10:32;;;;;;;14.52;2.58;;;10.70;99.90;;;;;;5047966;28;20053;-70
2022/09/17 08:12:58;;;;;;;12.63;2.05;;;10.60;99.90;;;;;;5048731;28;20045;-71
2022/09/17 08:15:24;;;;;;;15.48;2.13;;;10.60;99.90;;;;;;5048124;28;20502;-73
2022/09/17 08:17:51;;;;;;;10.75;1.92;;;10.60;99.90;;;;;;5021786;28;20113;-73
2022/09/17 08:20:18;;;;;;;12.07;1.80;;;10.60;99.90;;;;;;5048441;28;20515;-73
2022/09/17 08:22:44;;;;;;;7.28;1.70;;;10.70;99.90;;;;;;5047407;28;20037;-73
2022/09/17 08:25:10;;;;;;;14.27;2.00;;;10.80;99.90;;;;;;5051541;28;20057;-73
2022/09/17 08:27:37;;;;;;;16.52;2.17;;;11.00;99.90;;;;;;5052970;28;20044;-74
2022/09/17 08:30:05;;;;;;;13.75;1.80;;;11.20;99.90;;;;;;5059757;28;20055;-73
2022/09/17 08:32:30;;;;;;;13.02;2.33;;;11.20;99.90;;;;;;5062482;28;20450;-73
2022/09/17 08:34:56;;;;;;;15.13;2.65;;;11.50;99.90;;;;;;5036835;28;20065;-74
2022/09/17 08:37:22;;;;;;;17.70;2.65;;;11.60;99.90;;;;;;5017835;28;20041;-73
2022/09/17 08:39:48;;;;;;;17.23;2.85;;;12.00;99.90;;;;;;5035427;28;20053;-74
2022/09/17 08:42:22;;;;;;;14.65;2.60;;;12.10;99.90;;;;;;5052057;28;20059;-73
2022/09/17 08:44:49;;;;;;;12.38;2.97;;;12.20;99.90;;;;;;5052595;28;20102;-74
2022/09/17 08:47:35;;;;;;;9.45;1.42;;;11.90;99.90;;;;;;5035715;28;20146;-73
2022/09/17 08:50:04;;;;;;;13.55;1.75;;;11.60;99.90;;;;;;5051109;28;20049;-74
2022/09/17 08:52:53;;;;;;;11.80;1.95;;;11.30;99.90;;;;;;5052311;28;20064;-72
2022/09/17 08:55:30;;;;;;;11.52;1.55;;;11.20;99.90;;;;;;5031981;28;20624;-74
2022/09/17 08:58:18;;;;;;;11.13;1.70;;;11.10;99.90;;;;;;5023390;28;20080;-74
2022/09/17 09:01:00;;;;;;;7.70;1.52;;;11.20;99.90;;;;;;5066388;28;20166;-74
2022/09/17 09:03:52;;;;;;;9.68;1.80;;;11.20;99.90;;;;;;5071683;28;20059;-73
2022/09/17 09:06:18;;;;;;;;;;;11.20;99.90;;;;;;5062318;28;20093;-72
2022/09/17 09:08:47;;;;;;;11.50;1.70;;;11.00;99.90;;;;;;5066922;28;20007;-75
2022/09/17 09:11:16;;;;;;;12.70;2.40;;;10.90;99.90;;;;;;5070387;28;20098;-73
2022/09/17 09:13:47;;;;;;;11.00;1.70;;;10.80;99.90;;;;;;5070444;28;20044;-72
2022/09/17 09:16:19;;;;;;;10.50;1.90;;;10.70;99.90;;;;;;5063112;28;20048;-73
2022/09/17 09:18:50;;;;;;;13.88;2.00;;;10.80;99.90;;;;;;5066600;28;20060;-72
2022/09/17 09:21:38;;;;;;;14.82;2.40;;;11.00;99.90;;;;;;5072606;28;20387;-72
2022/09/17 09:24:15;;;;;;;15.05;2.00;;;11.30;99.90;;;;;;5071166;28;20044;-73
2022/09/17 09:26:49;;;;;;;15.27;2.10;;;11.50;99.90;;;;;;5042166;28;20106;-73
2022/09/17 09:29:18;;;;;;;14.57;2.40;;;11.60;99.90;;;;;;5032937;28;20037;-73
2022/09/17 09:31:56;;;;;;;10.80;1.45;;;11.60;99.90;;;;;;5050640;28;20053;-73
2022/09/17 09:34:25;;;;;;;8.43;1.13;;;11.50;99.90;;;;;;5049706;28;20045;-73
2022/09/17 09:36:52;;;;;;;10.10;1.70;;;11.40;99.90;;;;;;5041194;28;20592;-73
2022/09/17 09:39:24;;;;;;;10.65;1.55;;;11.20;99.90;;;;;;5084173;28;20086;-73
2022/09/17 09:41:57;;;;;;;16.25;2.08;;;11.20;99.90;;;;;;5054480;28;20106;-72
2022/09/17 09:44:24;;;;;;;10.82;1.77;;;11.30;99.90;;;;;;5056367;28;20087;-73
2022/09/17 09:47:23;;;;;;;10.77;1.95;;;11.40;99.90;;;;;;5056367;28;20602;-73
2022/09/17 09:50:10;;;;;;;10.95;1.63;;;11.60;99.90;;;;;;5037575;28;20048;-74
2022/09/17 09:52:54;;;;;;;10.73;1.70;;;12.00;99.90;;;;;;5050875;28;20644;-73
2022/09/17 09:55:31;;;;;;;11.45;2.20;;;12.20;99.90;;;;;;5051504;28;20132;-74
2022/09/17 09:58:30;;;;;;;15.50;2.33;;;12.50;99.90;;;;;;5031330;28;20046;-74
2022/09/17 10:00:56;;;;;;;10.82;2.28;;;12.80;99.90;;;;;;5033607;28;20095;-74
2022/09/17 10:03:31;;;;;;;13.02;1.98;;;13.10;99.90;;;;;;5048996;28;20068;-74
2022/09/17 10:05:59;;;;;;;8.82;1.80;;;13.20;99.90;;;;;;5031712;28;20051;-71
2022/09/17 10:08:28;;;;;;;13.73;2.25;;;13.30;99.90;;;;;;5015049;28;20049;-73
2022/09/17 10:10:56;;;;;;;10.20;1.95;;;13.50;99.90;;;;;;5049936;28;20124;-73
2022/09/17 10:13:23;;;;;;;16.75;2.72;;;13.80;99.90;;;;;;5041285;28;20407;-74
2022/09/17 10:15:48;;;;;;;14.88;2.65;;;13.70;99.90;;;;;;5049265;28;20059;-72
2022/09/17 10:18:17;;;;;;;16.98;2.90;;;13.60;99.90;;;;;;5033489;28;20045;-73
2022/09/17 10:20:59;;;;;;;13.10;2.50;;;13.50;99.90;;;;;;5050958;28;20401;-73
2022/09/17 10:23:32;;;;;;;12.52;2.33;;;13.30;99.90;;;;;;5048659;28;20037;-73
2022/09/17 10:25:58;;;;;;;11.80;2.30;;;13.10;99.90;;;;;;5051381;28;20300;-74
2022/09/17 10:28:55;;;;;;;11.52;2.53;;;13.10;99.90;;;;;;5021237;28;20516;-74
2022/09/17 10:31:21;;;;;;;12.32;2.05;;;12.80;99.90;;;;;;5046227;28;20084;-74
2022/09/17 10:34:00;;;;;;;12.00;1.83;;;12.60;99.90;;;;;;5042579;28;20337;-76
2022/09/17 10:36:38;;;;;;;13.20;2.25;;;12.30;99.90;;;;;;5018568;28;20134;-74
2022/09/17 10:39:22;;;;;;;12.23;2.15;;;12.20;99.90;;;;;;5028013;28;20515;-75
2022/09/17 10:42:15;;;;;;;11.93;2.15;;;12.10;99.90;;;;;;5035690;28;20052;-74
2022/09/17 10:44:52;;;;;;;13.32;2.38;;;12.10;99.90;;;;;;5036172;28;20045;-74
2022/09/17 10:47:28;;;;;;;12.75;2.58;;;12.10;99.90;;;;;;5033053;28;20511;-75
2022/09/17 10:50:03;;;;;;;14.52;2.63;;;12.20;99.90;;;;;;5050292;28;20148;-73
2022/09/17 10:52:42;;;;;;;16.90;2.72;;;12.50;99.90;;;;;;5050169;28;20044;-75
2022/09/17 10:55:36;;;;;;;12.57;2.10;;;12.70;99.90;;;;;;5049098;28;20120;-74
2022/09/17 10:58:19;;;;;;;17.67;3.53;;;13.00;99.90;;;;;;5032484;28;20055;-74
2022/09/17 11:01:11;;;;;;;14.45;2.83;;;13.30;99.90;;;;;;5049145;28;20052;-74
2022/09/17 11:03:58;;;;;;;15.20;2.53;;;13.70;99.90;;;;;;5048305;28;20052;-74
2022/09/17 11:06:39;;;;;;;11.20;1.95;;;14.00;99.90;;;;;;5023626;28;20059;-72
2022/09/17 11:09:30;;;;;;;17.08;2.63;;;14.30;99.90;;;;;;5037578;28;20072;-73
2022/09/17 11:12:19;;;;;;;11.55;2.08;;;14.20;99.90;;;;;;5038987;28;20037;-74
2022/09/17 11:15:08;;;;;;;15.57;2.20;;;13.90;99.90;;;;;;5039214;28;20056;-75
2022/09/17 11:18:11;;;;;;;11.13;2.05;;;13.80;99.90;;;;;;5034077;28;20075;-74
2022/09/17 11:21:02;;;;;;;16.80;2.72;;;13.70;99.90;;;;;;5049881;28;20404;-75
2022/09/17 11:23:54;;;;;;;16.50;2.85;;;13.70;99.90;;;;;;5047768;28;20045;-75
2022/09/17 11:26:43;;;;;;;11.52;2.20;;;13.50;99.90;;;;;;5038282;28;20056;-74
2022/09/17 11:29:46;;;;;;;12.13;2.10;;;13.70;99.90;;;;;;5081592;28;20053;-74
2022/09/17 11:32:36;;;;;;;12.07;2.20;;;13.80;99.90;;;;;;5031289;28;20086;-73
2022/09/17 11:35:10;;;;;;;11.88;2.85;;;13.70;99.90;;;;;;5032272;28;20497;-74
2022/09/17 11:37:48;;;;;;;16.10;3.10;;;13.80;99.90;;;;;;4996932;28;20087;-74
2022/09/17 11:40:38;;;;;;;14.32;2.65;;;13.80;99.90;;;;;;5030278;28;20045;-74
2022/09/17 11:43:10;;;;;;;16.25;2.83;;;14.00;99.90;;;;;;5053493;28;20119;-74
2022/09/17 11:45:40;;;;;;;22.20;3.67;;;14.30;99.90;;;;;;5068614;28;20049;-73
2022/09/17 11:48:09;;;;;;;19.58;3.35;;;13.90;99.90;;;;;;5035226;28;20072;-73
2022/09/17 11:50:57;;;;;;;15.07;2.75;;;13.20;99.90;;;;;;5050128;28;20128;-72
2022/09/17 11:53:49;;;;;;;11.07;2.13;;;13.10;99.90;;;;;;5049102;28;20051;-73
2022/09/17 11:56:19;;;;;;;;;;;13.00;99.90;;;;;;5039249;28;20049;-73
2022/09/17 11:59:00;;;;;;;15.85;2.15;;;13.30;99.90;;;;;;5044153;28;19921;-72
2022/09/17 12:01:50;;;;;;;15.45;2.58;;;13.40;99.90;;;;;;5052322;28;20071;-73
2022/09/17 12:04:44;;;;;;;11.05;2.22;;;13.60;99.90;;;;;;5051443;28;20134;-72
2022/09/17 12:07:40;;;;;;;12.55;2.53;;;13.70;99.90;;;;;;5037380;28;20052;-72
2022/09/17 12:10:25;;;;;;;19.40;2.80;;;13.90;99.90;;;;;;5064676;28;20033;-73
2022/09/17 12:13:11;;;;;;;16.77;2.65;;;14.10;99.90;;;;;;5046814;28;20118;-74
2022/09/17 12:15:40;;;;;;;14.52;2.60;;;14.30;99.90;;;;;;5049092;28;20500;-73
2022/09/17 12:18:24;;;;;;;10.95;1.88;;;14.50;99.90;;;;;;5031844;28;20036;-71
2022/09/17 12:20:54;;;;;;;11.63;1.77;;;14.50;99.90;;;;;;5066523;28;20254;-73
2022/09/17 12:23:44;;;;;;;11.48;1.92;;;14.50;99.90;;;;;;5052763;28;20044;-73
2022/09/17 12:26:32;;;;;;;11.68;1.88;;;14.60;99.90;;;;;;5045890;28;20044;-74
2022/09/17 12:29:20;;;;;;;10.80;1.63;;;14.60;99.90;;;;;;5063457;28;20044;-73
2022/09/17 12:32:18;;;;;;;7.50;1.63;;;14.70;99.90;;;;;;5076203;28;20040;-74
2022/09/17 12:35:02;;;;;;;12.18;1.98;;;14.80;99.90;;;;;;5084224;28;20573;-72
2022/09/17 12:38:03;;;;;;;6.70;1.70;;;14.70;99.90;;;;;;5057410;28;20407;-72
2022/09/17 12:40:37;;;;;;;8.95;1.70;;;14.90;99.90;;;;;;5051955;28;20122;-73
2022/09/17 12:43:15;;;;;;;15.25;2.65;;;15.00;99.90;;;;;;5064524;28;20041;-73
2022/09/17 12:46:11;;;;;;;13.38;2.35;;;14.80;99.90;;;;;;5071851;28;20064;-72
2022/09/17 12:48:48;;;;;;;15.25;2.92;;;14.30;99.90;;;;;;5062766;28;20040;-74
2022/09/17 12:51:31;;;;;;;12.48;2.35;;;14.20;99.90;;;;;;5071394;28;20093;-72
2022/09/17 12:54:33;;;;;;;15.57;2.55;;;14.30;99.90;;;;;;5070725;28;20124;-71
2022/09/17 12:57:20;;;;;;;18.00;3.03;;;14.30;99.90;;;;;;5057467;28;20241;-73
2022/09/17 12:59:57;;;;;;;13.40;2.55;;;14.40;99.90;;;;;;5071732;28;20101;-72
2022/09/17 13:02:45;;;;;;;12.88;2.85;;;14.60;99.90;;;;;;5069438;28;20072;-73
2022/09/17 13:05:23;;;;;;;16.23;2.60;;;14.60;99.90;;;;;;5051334;28;20067;-72
2022/09/17 13:08:19;;;;;;;16.73;3.15;;;14.70;99.90;;;;;;5016249;28;20053;-72